createdAt,value
2018-03-04T00:00:05.709Z,-4.25
2018-03-04T00:01:06.454Z,-4.31
2018-03-04T00:02:06.414Z,-4.31
2018-03-04T00:03:06.048Z,-4.31
2018-03-04T00:04:06.437Z,-4.31
2018-03-04T00:05:06.067Z,-4.38
2018-03-04T00:06:06.414Z,-4.38
2018-03-04T00:07:06.399Z,-4.38
2018-03-04T00:08:06.020Z,-4.38
2018-03-04T00:09:05.681Z,-4.38
2018-03-04T00:10:05.927Z,-4.44
2018-03-04T00:11:06.401Z,-4.44
2018-03-04T00:12:05.628Z,-4.44
2018-03-04T00:13:06.486Z,-4.50
2018-03-04T00:14:05.699Z,-4.50
2018-03-04T00:15:06.384Z,-4.50
2018-03-04T00:16:06.056Z,-4.56
2018-03-04T00:17:06.055Z,-4.56
2018-03-04T00:18:07.175Z,-4.56
2018-03-04T00:19:06.102Z,-4.56
2018-03-04T00:20:05.931Z,-4.62
2018-03-04T00:21:06.157Z,-4.62
2018-03-04T00:22:06.500Z,-4.62
2018-03-04T00:23:06.450Z,-4.62
2018-03-04T00:24:06.104Z,-4.69
2018-03-04T00:25:05.733Z,-4.69
2018-03-04T00:26:07.202Z,-4.69
2018-03-04T00:27:06.059Z,-4.69
2018-03-04T00:28:10.583Z,-4.69
2018-03-04T00:29:06.144Z,-4.75
2018-03-04T00:30:06.013Z,-4.75
2018-03-04T00:31:06.053Z,-4.75
2018-03-04T00:32:05.697Z,-4.81
2018-03-04T00:33:06.454Z,-4.81
2018-03-04T00:34:06.081Z,-4.81
2018-03-04T00:35:05.801Z,-4.81
2018-03-04T00:36:06.430Z,-4.81
2018-03-04T00:37:10.467Z,-4.88
2018-03-04T00:38:06.200Z,-4.88
2018-03-04T00:39:05.784Z,-4.88
2018-03-04T00:40:06.513Z,-4.88
2018-03-04T00:41:06.128Z,-4.88
2018-03-04T00:42:06.131Z,-4.94
2018-03-04T00:43:06.154Z,-4.94
2018-03-04T00:44:05.649Z,-4.94
2018-03-04T00:45:06.255Z,-4.94
2018-03-04T00:46:05.949Z,-5.00
2018-03-04T00:47:05.627Z,-5.00
2018-03-04T00:48:06.418Z,-5.00
2018-03-04T00:49:06.186Z,-5.00
2018-03-04T00:50:06.078Z,-5.06
2018-03-04T00:51:06.439Z,-5.06
2018-03-04T00:52:06.432Z,-5.06
2018-03-04T00:53:06.137Z,-5.06
2018-03-04T00:54:05.714Z,-5.12
2018-03-04T00:55:06.056Z,-5.12
2018-03-04T00:56:05.768Z,-5.12
2018-03-04T00:57:06.417Z,-5.12
2018-03-04T00:58:06.175Z,-5.12
2018-03-04T00:59:05.714Z,-5.19
2018-03-04T01:00:06.049Z,-5.19
2018-03-04T01:01:05.674Z,-5.19
2018-03-04T01:02:06.088Z,-5.19
2018-03-04T01:03:10.721Z,-5.19
2018-03-04T01:04:06.444Z,-5.19
2018-03-04T01:05:06.186Z,-5.19
2018-03-04T01:06:06.359Z,-5.19
2018-03-04T01:07:06.037Z,-5.19
2018-03-04T01:08:06.553Z,-5.25
2018-03-04T01:09:06.178Z,-5.25
2018-03-04T01:10:06.118Z,-5.25
2018-03-04T01:11:06.541Z,-5.25
2018-03-04T01:12:06.216Z,-5.25
2018-03-04T01:13:11.269Z,-5.25
2018-03-04T01:14:06.563Z,-5.25
2018-03-04T01:15:06.075Z,-5.25
2018-03-04T01:16:06.147Z,-5.25
2018-03-04T01:17:06.097Z,-5.31
2018-03-04T01:18:05.856Z,-5.31
2018-03-04T01:19:05.716Z,-5.31
2018-03-04T01:20:06.194Z,-5.31
2018-03-04T01:21:06.580Z,-5.31
2018-03-04T01:22:06.154Z,-5.31
2018-03-04T01:23:06.167Z,-5.38
2018-03-04T01:24:06.105Z,-5.38
2018-03-04T01:25:05.695Z,-5.38
2018-03-04T01:26:05.816Z,-5.38
2018-03-04T01:27:06.523Z,-5.38
2018-03-04T01:28:06.655Z,-5.38
2018-03-04T01:29:06.105Z,-5.38
2018-03-04T01:30:05.799Z,-5.38
2018-03-04T01:31:11.032Z,-5.38
2018-03-04T01:32:06.261Z,-5.38
2018-03-04T01:33:05.789Z,-5.38
2018-03-04T01:34:06.039Z,-5.44
2018-03-04T01:35:05.726Z,-5.44
2018-03-04T01:36:05.791Z,-5.44
2018-03-04T01:37:10.718Z,-5.50
2018-03-04T01:38:06.189Z,-5.50
2018-03-04T01:39:06.252Z,-5.50
2018-03-04T01:40:06.152Z,-5.50
2018-03-04T01:41:06.099Z,-5.50
2018-03-04T01:42:06.455Z,-5.50
2018-03-04T01:43:06.184Z,-5.50
2018-03-04T01:44:06.136Z,-5.50
2018-03-04T01:45:06.110Z,-5.50
2018-03-04T01:46:05.717Z,-5.50
2018-03-04T01:47:06.979Z,-5.50
2018-03-04T01:48:06.043Z,-5.50
2018-03-04T01:49:06.018Z,-5.50
2018-03-04T01:50:05.706Z,-5.56
2018-03-04T01:51:10.965Z,-5.56
2018-03-04T01:52:06.247Z,-5.56
2018-03-04T01:53:05.757Z,-5.56
2018-03-04T01:54:06.495Z,-5.56
2018-03-04T01:55:05.782Z,-5.56
2018-03-04T01:56:05.600Z,-5.56
2018-03-04T01:57:06.605Z,-5.56
2018-03-04T01:58:06.242Z,-5.56
2018-03-04T01:59:06.144Z,-5.56
2018-03-04T02:00:05.750Z,-5.56
2018-03-04T02:01:06.905Z,-5.56
2018-03-04T02:02:05.849Z,-5.56
2018-03-04T02:03:05.869Z,-5.56
2018-03-04T02:04:05.529Z,-5.56
2018-03-04T02:05:06.481Z,-5.56
2018-03-04T02:06:06.107Z,-5.56
2018-03-04T02:07:05.734Z,-5.62
2018-03-04T02:08:06.202Z,-5.56
2018-03-04T02:09:06.194Z,-5.62
2018-03-04T02:10:05.774Z,-5.62
2018-03-04T02:11:06.229Z,-5.62
2018-03-04T02:12:06.496Z,-5.62
2018-03-04T02:13:05.817Z,-5.62
2018-03-04T02:14:06.889Z,-5.62
2018-03-04T02:15:07.266Z,-5.62
2018-03-04T02:16:15.896Z,-5.62
2018-03-04T02:17:06.593Z,-5.62
2018-03-04T02:18:05.823Z,-5.62
2018-03-04T02:19:05.734Z,-5.56
2018-03-04T02:20:06.235Z,-5.56
2018-03-04T02:21:06.834Z,-5.56
2018-03-04T02:22:05.636Z,-5.56
2018-03-04T02:23:06.149Z,-5.56
2018-03-04T02:24:10.394Z,-5.56
2018-03-04T02:25:06.175Z,-5.56
2018-03-04T02:26:05.702Z,-5.50
2018-03-04T02:27:12.026Z,-5.50
2018-03-04T02:28:11.106Z,-5.50
2018-03-04T02:29:06.506Z,-5.50
2018-03-04T02:30:06.559Z,-5.50
2018-03-04T02:31:06.527Z,-5.50
2018-03-04T02:32:06.147Z,-5.50
2018-03-04T02:33:05.762Z,-5.50
2018-03-04T02:34:06.549Z,-5.50
2018-03-04T02:35:11.196Z,-5.50
2018-03-04T02:36:06.561Z,-5.50
2018-03-04T02:37:06.562Z,-5.50
2018-03-04T02:38:05.799Z,-5.50
2018-03-04T02:39:06.018Z,-5.50
2018-03-04T02:40:05.863Z,-5.50
2018-03-04T02:41:05.803Z,-5.44
2018-03-04T02:42:06.364Z,-5.44
2018-03-04T02:43:05.893Z,-5.44
2018-03-04T02:44:06.641Z,-5.44
2018-03-04T02:45:06.162Z,-5.44
2018-03-04T02:46:06.247Z,-5.44
2018-03-04T02:47:06.893Z,-5.44
2018-03-04T02:48:06.102Z,-5.38
2018-03-04T02:49:05.876Z,-5.38
2018-03-04T02:50:06.672Z,-5.38
2018-03-04T02:51:06.524Z,-5.38
2018-03-04T02:52:06.253Z,-5.38
2018-03-04T02:53:06.546Z,-5.31
2018-03-04T02:54:05.763Z,-5.31
2018-03-04T02:55:06.663Z,-5.31
2018-03-04T02:56:06.151Z,-5.31
2018-03-04T02:57:05.844Z,-5.31
2018-03-04T02:58:05.483Z,-5.25
2018-03-04T02:59:06.564Z,-5.25
2018-03-04T03:00:06.324Z,-5.25
2018-03-04T03:01:05.972Z,-5.25
2018-03-04T03:02:05.765Z,-5.31
2018-03-04T03:03:06.272Z,-5.25
2018-03-04T03:04:10.786Z,-5.25
2018-03-04T03:05:06.127Z,-5.25
2018-03-04T03:06:05.723Z,-5.25
2018-03-04T03:07:05.738Z,-5.25
2018-03-04T03:08:12.202Z,-5.19
2018-03-04T03:09:05.808Z,-5.19
2018-03-04T03:10:06.294Z,-5.19
2018-03-04T03:11:05.942Z,-5.19
2018-03-04T03:12:05.864Z,-5.12
2018-03-04T03:13:06.567Z,-5.12
2018-03-04T03:14:05.894Z,-5.12
2018-03-04T03:15:06.976Z,-5.12
2018-03-04T03:16:06.197Z,-5.06
2018-03-04T03:17:10.765Z,-5.06
2018-03-04T03:18:06.097Z,-5.06
2018-03-04T03:19:06.837Z,-5.06
2018-03-04T03:20:05.534Z,-5.06
2018-03-04T03:21:06.283Z,-5.00
2018-03-04T03:22:05.933Z,-5.00
2018-03-04T03:23:06.587Z,-5.00
2018-03-04T03:24:06.076Z,-5.00
2018-03-04T03:25:05.864Z,-4.94
2018-03-04T03:26:05.690Z,-4.94
2018-03-04T03:27:06.214Z,-4.94
2018-03-04T03:28:05.914Z,-4.94
2018-03-04T03:29:06.944Z,-4.88
2018-03-04T03:30:06.199Z,-4.88
2018-03-04T03:31:06.179Z,-4.88
2018-03-04T03:32:05.803Z,-4.88
2018-03-04T03:33:05.513Z,-4.81
2018-03-04T03:34:06.585Z,-4.81
2018-03-04T03:35:06.086Z,-4.81
2018-03-04T03:36:10.911Z,-4.81
2018-03-04T03:37:06.403Z,-4.75
2018-03-04T03:38:06.294Z,-4.75
2018-03-04T03:39:06.914Z,-4.75
2018-03-04T03:40:06.360Z,-4.75
2018-03-04T03:41:06.249Z,-4.75
2018-03-04T03:42:06.237Z,-4.69
2018-03-04T03:43:10.645Z,-4.69
2018-03-04T03:44:06.259Z,-4.62
2018-03-04T03:45:05.817Z,-4.62
2018-03-04T03:46:06.287Z,-4.62
2018-03-04T03:47:05.874Z,-4.56
2018-03-04T03:48:06.276Z,-4.56
2018-03-04T03:49:05.859Z,-4.56
2018-03-04T03:50:05.572Z,-4.50
2018-03-04T03:51:06.087Z,-4.50
2018-03-04T03:52:06.241Z,-4.44
2018-03-04T03:53:05.838Z,-4.44
2018-03-04T03:54:06.711Z,-4.38
2018-03-04T03:55:05.814Z,-4.38
2018-03-04T03:56:07.106Z,-4.38
2018-03-04T03:57:06.228Z,-4.31
2018-03-04T03:58:06.190Z,-4.31
2018-03-04T03:59:06.303Z,-4.31
2018-03-04T04:00:05.860Z,-4.25
2018-03-04T04:01:06.623Z,-4.25
2018-03-04T04:02:06.303Z,-4.25
2018-03-04T04:03:05.838Z,-4.19
2018-03-04T04:04:05.620Z,-4.19
2018-03-04T04:05:06.726Z,-4.12
2018-03-04T04:06:06.228Z,-4.12
2018-03-04T04:07:05.846Z,-4.12
2018-03-04T04:08:06.410Z,-4.12
2018-03-04T04:09:06.124Z,-4.12
2018-03-04T04:10:06.193Z,-4.06
2018-03-04T04:11:05.854Z,-4.06
2018-03-04T04:12:06.105Z,-4.00
2018-03-04T04:13:06.193Z,-4.00
2018-03-04T04:14:05.846Z,-4.00
2018-03-04T04:15:06.363Z,-4.00
2018-03-04T04:16:05.948Z,-4.00
2018-03-04T04:17:06.713Z,-3.94
2018-03-04T04:18:06.161Z,-3.94
2018-03-04T04:19:06.355Z,-3.94
2018-03-04T04:20:05.921Z,-3.94
2018-03-04T04:21:05.575Z,-3.94
2018-03-04T04:22:06.226Z,-3.88
2018-03-04T04:23:05.953Z,-3.88
2018-03-04T04:24:06.563Z,-3.88
2018-03-04T04:25:07.069Z,-3.81
2018-03-04T04:26:05.924Z,-3.81
2018-03-04T04:27:05.803Z,-3.81
2018-03-04T04:28:06.408Z,-3.81
2018-03-04T04:29:07.234Z,-3.81
2018-03-04T04:30:05.970Z,-3.75
2018-03-04T04:31:11.058Z,-3.75
2018-03-04T04:32:06.028Z,-3.75
2018-03-04T04:33:05.774Z,-3.75
2018-03-04T04:34:05.868Z,-3.75
2018-03-04T04:35:05.861Z,-3.75
2018-03-04T04:36:06.237Z,-3.69
2018-03-04T04:37:05.877Z,-3.69
2018-03-04T04:38:05.741Z,-3.69
2018-03-04T04:39:06.229Z,-3.69
2018-03-04T04:40:05.779Z,-3.62
2018-03-04T04:41:06.450Z,-3.62
2018-03-04T04:42:05.612Z,-3.62
2018-03-04T04:43:06.237Z,-3.62
2018-03-04T04:44:05.865Z,-3.56
2018-03-04T04:45:06.623Z,-3.56
2018-03-04T04:46:06.641Z,-3.56
2018-03-04T04:47:06.654Z,-3.56
2018-03-04T04:48:06.373Z,-3.50
2018-03-04T04:49:05.589Z,-3.50
2018-03-04T04:50:05.950Z,-3.50
2018-03-04T04:51:06.396Z,-3.44
2018-03-04T04:52:05.981Z,-3.44
2018-03-04T04:53:06.683Z,-3.44
2018-03-04T04:54:05.555Z,-3.44
2018-03-04T04:55:05.876Z,-3.38
2018-03-04T04:56:05.849Z,-3.38
2018-03-04T04:57:06.323Z,-3.38
2018-03-04T04:58:05.948Z,-3.38
2018-03-04T04:59:06.345Z,-3.31
2018-03-04T05:00:06.679Z,-3.31
2018-03-04T05:01:06.280Z,-3.31
2018-03-04T05:02:05.913Z,-3.25
2018-03-04T05:03:06.279Z,-3.25
2018-03-04T05:04:10.723Z,-3.25
2018-03-04T05:05:05.866Z,-3.25
2018-03-04T05:06:07.414Z,-3.19
2018-03-04T05:07:05.958Z,-3.19
2018-03-04T05:08:05.553Z,-3.19
2018-03-04T05:09:06.155Z,-3.12
2018-03-04T05:10:06.267Z,-3.12
2018-03-04T05:11:06.354Z,-3.12
2018-03-04T05:12:06.354Z,-3.12
2018-03-04T05:13:11.029Z,-3.12
2018-03-04T05:14:05.788Z,-3.06
2018-03-04T05:15:06.351Z,-3.06
2018-03-04T05:16:05.987Z,-3.06
2018-03-04T05:17:06.035Z,-3.00
2018-03-04T05:18:06.703Z,-3.00
2018-03-04T05:19:06.287Z,-3.00
2018-03-04T05:20:05.623Z,-3.00
2018-03-04T05:21:06.276Z,-3.00
2018-03-04T05:22:05.978Z,-2.94
2018-03-04T05:23:05.929Z,-2.94
2018-03-04T05:24:05.879Z,-2.88
2018-03-04T05:25:06.064Z,-2.88
2018-03-04T05:26:05.951Z,-2.88
2018-03-04T05:27:06.072Z,-2.88
2018-03-04T05:28:06.288Z,-2.88
2018-03-04T05:29:05.664Z,-2.81
2018-03-04T05:30:07.102Z,-2.81
2018-03-04T05:31:06.389Z,-2.75
2018-03-04T05:32:06.668Z,-2.75
2018-03-04T05:33:05.838Z,-2.75
2018-03-04T05:34:05.611Z,-2.75
2018-03-04T05:35:06.333Z,-2.75
2018-03-04T05:36:06.286Z,-2.75
2018-03-04T05:37:05.514Z,-2.75
2018-03-04T05:38:05.625Z,-2.69
2018-03-04T05:39:06.302Z,-2.69
2018-03-04T05:40:05.918Z,-2.69
2018-03-04T05:41:06.298Z,-2.69
2018-03-04T05:42:05.842Z,-2.62
2018-03-04T05:43:05.908Z,-2.62
2018-03-04T05:44:06.403Z,-2.62
2018-03-04T05:45:05.929Z,-2.62
2018-03-04T05:46:05.632Z,-2.62
2018-03-04T05:47:06.422Z,-2.62
2018-03-04T05:48:06.318Z,-2.56
2018-03-04T05:49:05.906Z,-2.56
2018-03-04T05:50:06.341Z,-2.56
2018-03-04T05:51:06.442Z,-2.56
2018-03-04T05:52:05.931Z,-2.50
2018-03-04T05:53:06.385Z,-2.50
2018-03-04T05:54:06.222Z,-2.50
2018-03-04T05:55:05.948Z,-2.50
2018-03-04T05:56:06.368Z,-2.44
2018-03-04T05:57:10.784Z,-2.44
2018-03-04T05:58:06.286Z,-2.44
2018-03-04T05:59:06.021Z,-2.44
2018-03-04T06:00:06.743Z,-2.38
2018-03-04T06:01:06.720Z,-2.38
2018-03-04T06:02:05.933Z,-2.38
2018-03-04T06:03:05.613Z,-2.38
2018-03-04T06:04:10.869Z,-2.38
2018-03-04T06:05:06.357Z,-2.31
2018-03-04T06:06:06.061Z,-2.31
2018-03-04T06:07:05.570Z,-2.31
2018-03-04T06:08:05.950Z,-2.31
2018-03-04T06:09:05.850Z,-2.31
2018-03-04T06:10:05.578Z,-2.25
2018-03-04T06:11:06.054Z,-2.25
2018-03-04T06:12:05.967Z,-2.25
2018-03-04T06:13:06.471Z,-2.25
2018-03-04T06:14:05.958Z,-2.25
2018-03-04T06:15:06.172Z,-2.19
2018-03-04T06:16:06.228Z,-2.19
2018-03-04T06:17:06.065Z,-2.19
2018-03-04T06:18:05.577Z,-2.19
2018-03-04T06:19:05.470Z,-2.12
2018-03-04T06:20:05.979Z,-2.12
2018-03-04T06:21:06.006Z,-2.12
2018-03-04T06:22:06.421Z,-2.12
2018-03-04T06:23:07.479Z,-2.06
2018-03-04T06:24:06.061Z,-2.06
2018-03-04T06:25:06.436Z,-2.06
2018-03-04T06:26:06.431Z,-2.06
2018-03-04T06:27:10.699Z,-2.00
2018-03-04T06:28:05.873Z,-2.00
2018-03-04T06:29:06.465Z,-2.00
2018-03-04T06:30:10.690Z,-2.00
2018-03-04T06:31:06.073Z,-1.94
2018-03-04T06:32:05.598Z,-1.94
2018-03-04T06:33:05.655Z,-1.94
2018-03-04T06:34:06.628Z,-1.94
2018-03-04T06:35:06.008Z,-1.94
2018-03-04T06:36:05.895Z,-1.94
2018-03-04T06:37:06.350Z,-1.94
2018-03-04T06:38:06.484Z,-1.88
2018-03-04T06:39:10.974Z,-1.88
2018-03-04T06:40:05.588Z,-1.88
2018-03-04T06:41:06.515Z,-1.81
2018-03-04T06:42:06.376Z,-1.81
2018-03-04T06:43:06.124Z,-1.81
2018-03-04T06:44:06.262Z,-1.81
2018-03-04T06:45:06.101Z,-1.75
2018-03-04T06:46:05.683Z,-1.75
2018-03-04T06:47:05.618Z,-1.75
2018-03-04T06:48:06.268Z,-1.75
2018-03-04T06:49:05.693Z,-1.75
2018-03-04T06:50:06.346Z,-1.69
2018-03-04T06:51:10.918Z,-1.69
2018-03-04T06:52:06.083Z,-1.69
2018-03-04T06:53:06.001Z,-1.62
2018-03-04T06:54:05.705Z,-1.62
2018-03-04T06:55:06.548Z,-1.62
2018-03-04T06:56:06.100Z,-1.62
2018-03-04T06:57:05.707Z,-1.62
2018-03-04T06:58:05.537Z,-1.62
2018-03-04T06:59:05.617Z,-1.56
2018-03-04T07:00:05.514Z,-1.56
2018-03-04T07:01:05.899Z,-1.56
2018-03-04T07:02:06.807Z,-1.50
2018-03-04T07:03:06.497Z,-1.50
2018-03-04T07:04:10.879Z,-1.50
2018-03-04T07:05:06.158Z,-1.50
2018-03-04T07:06:05.713Z,-1.50
2018-03-04T07:07:05.934Z,-1.44
2018-03-04T07:08:06.577Z,-1.44
2018-03-04T07:09:06.457Z,-1.44
2018-03-04T07:10:11.828Z,-1.44
2018-03-04T07:11:06.382Z,-1.38
2018-03-04T07:12:05.960Z,-1.38
2018-03-04T07:13:06.101Z,-1.38
2018-03-04T07:14:06.036Z,-1.38
2018-03-04T07:15:10.517Z,-1.31
2018-03-04T07:16:06.115Z,-1.31
2018-03-04T07:17:06.460Z,-1.31
2018-03-04T07:18:10.966Z,-1.25
2018-03-04T07:19:06.259Z,-1.25
2018-03-04T07:20:06.349Z,-1.25
2018-03-04T07:21:06.322Z,-1.19
2018-03-04T07:22:06.469Z,-1.19
2018-03-04T07:23:06.081Z,-1.12
2018-03-04T07:24:06.152Z,-1.12
2018-03-04T07:25:06.024Z,-1.12
2018-03-04T07:26:06.202Z,-1.06
2018-03-04T07:27:05.736Z,-1.00
2018-03-04T07:28:06.590Z,-0.94
2018-03-04T07:29:06.150Z,-0.88
2018-03-04T07:30:05.660Z,-0.81
2018-03-04T07:31:06.125Z,-0.81
2018-03-04T07:32:06.355Z,-0.75
2018-03-04T07:33:05.639Z,-0.75
2018-03-04T07:34:06.647Z,-0.75
2018-03-04T07:35:05.985Z,-0.69
2018-03-04T07:36:05.741Z,-0.69
2018-03-04T07:37:06.303Z,-0.69
2018-03-04T07:38:05.832Z,-0.69
2018-03-04T07:39:05.652Z,-0.69
2018-03-04T07:40:06.169Z,-0.62
2018-03-04T07:41:05.776Z,-0.62
2018-03-04T07:42:06.050Z,-0.62
2018-03-04T07:43:06.133Z,-0.62
2018-03-04T07:44:05.660Z,-0.62
2018-03-04T07:45:05.681Z,-0.56
2018-03-04T07:46:06.433Z,-0.56
2018-03-04T07:47:06.210Z,-0.56
2018-03-04T07:48:06.042Z,-0.56
2018-03-04T07:49:05.856Z,-0.50
2018-03-04T07:50:06.799Z,-0.50
2018-03-04T07:51:06.148Z,-0.44
2018-03-04T07:52:05.662Z,-0.44
2018-03-04T07:53:05.722Z,-0.38
2018-03-04T07:54:06.539Z,-0.38
2018-03-04T07:55:10.540Z,-0.31
2018-03-04T07:56:05.789Z,-0.25
2018-03-04T07:57:06.099Z,-0.19
2018-03-04T07:58:06.144Z,-0.12
2018-03-04T07:59:06.078Z,-0.12
2018-03-04T08:00:05.991Z,-0.06
2018-03-04T08:01:06.590Z,0.00
2018-03-04T08:02:06.010Z,0.00
2018-03-04T08:03:05.390Z,0.00
2018-03-04T08:04:06.119Z,0.00
2018-03-04T08:05:05.688Z,0.06
2018-03-04T08:06:06.149Z,0.06
2018-03-04T08:07:05.697Z,0.12
2018-03-04T08:08:06.171Z,0.12
2018-03-04T08:09:06.321Z,0.19
2018-03-04T08:10:06.588Z,0.19
2018-03-04T08:11:10.892Z,0.25
2018-03-04T08:12:06.605Z,0.31
2018-03-04T08:13:06.072Z,0.44
2018-03-04T08:14:06.070Z,0.50
2018-03-04T08:15:05.764Z,0.56
2018-03-04T08:16:06.508Z,0.62
2018-03-04T08:17:06.080Z,0.69
2018-03-04T08:18:05.859Z,0.75
2018-03-04T08:19:06.559Z,0.81
2018-03-04T08:20:06.113Z,0.81
2018-03-04T08:21:05.955Z,0.88
2018-03-04T08:22:06.176Z,0.94
2018-03-04T08:23:05.697Z,1.00
2018-03-04T08:24:06.204Z,1.06
2018-03-04T08:25:05.851Z,1.06
2018-03-04T08:26:05.722Z,1.12
2018-03-04T08:27:11.281Z,1.19
2018-03-04T08:28:06.126Z,1.25
2018-03-04T08:29:05.750Z,1.25
2018-03-04T08:30:06.174Z,1.31
2018-03-04T08:31:10.935Z,1.38
2018-03-04T08:32:06.203Z,1.50
2018-03-04T08:33:06.122Z,1.56
2018-03-04T08:34:06.553Z,1.69
2018-03-04T08:35:06.027Z,1.88
2018-03-04T08:36:05.804Z,1.94
2018-03-04T08:37:05.874Z,2.00
2018-03-04T08:38:06.460Z,2.06
2018-03-04T08:39:05.702Z,2.12
2018-03-04T08:40:05.593Z,2.19
2018-03-04T08:41:07.289Z,2.19
2018-03-04T08:42:06.103Z,2.25
2018-03-04T08:43:06.075Z,2.25
2018-03-04T08:44:06.849Z,2.31
2018-03-04T08:45:05.699Z,2.31
2018-03-04T08:46:11.239Z,2.31
2018-03-04T08:47:11.298Z,2.38
2018-03-04T08:48:06.597Z,2.44
2018-03-04T08:49:06.850Z,2.44
2018-03-04T08:50:06.789Z,2.50
2018-03-04T08:51:06.068Z,2.56
2018-03-04T08:52:06.586Z,2.62
2018-03-04T08:53:06.022Z,2.62
2018-03-04T08:54:08.831Z,2.69
2018-03-04T08:55:06.340Z,2.69
2018-03-04T08:56:06.119Z,2.69
2018-03-04T08:57:05.841Z,2.75
2018-03-04T08:58:10.557Z,2.75
2018-03-04T08:59:05.722Z,2.75
2018-03-04T09:00:05.722Z,2.81
2018-03-04T09:01:06.350Z,2.88
2018-03-04T09:02:05.995Z,2.88
2018-03-04T09:03:06.826Z,2.94
2018-03-04T09:04:06.424Z,2.88
2018-03-04T09:05:06.132Z,2.94
2018-03-04T09:06:05.770Z,3.00
2018-03-04T09:07:11.281Z,3.00
2018-03-04T09:08:05.732Z,3.06
2018-03-04T09:09:06.205Z,3.12
2018-03-04T09:10:06.225Z,3.12
2018-03-04T09:11:06.134Z,3.12
2018-03-04T09:12:05.724Z,3.19
2018-03-04T09:13:06.070Z,3.31
2018-03-04T09:14:05.817Z,3.38
2018-03-04T09:15:05.814Z,3.38
2018-03-04T09:16:06.035Z,3.44
2018-03-04T09:17:05.708Z,3.50
2018-03-04T09:18:06.565Z,3.56
2018-03-04T09:19:06.112Z,3.62
2018-03-04T09:20:06.175Z,3.62
2018-03-04T09:21:06.042Z,3.69
2018-03-04T09:22:06.595Z,3.75
2018-03-04T09:23:05.852Z,3.75
2018-03-04T09:24:06.255Z,3.75
2018-03-04T09:25:10.879Z,3.75
2018-03-04T09:26:06.293Z,3.81
2018-03-04T09:27:05.814Z,3.88
2018-03-04T09:28:06.587Z,3.88
2018-03-04T09:29:06.523Z,4.00
2018-03-04T09:30:06.142Z,4.06
2018-03-04T09:31:05.770Z,4.06
2018-03-04T09:32:06.220Z,4.06
2018-03-04T09:33:05.795Z,4.12
2018-03-04T09:34:06.228Z,4.12
2018-03-04T09:35:05.754Z,4.19
2018-03-04T09:36:06.638Z,4.19
2018-03-04T09:37:06.080Z,4.25
2018-03-04T09:38:06.120Z,4.25
2018-03-04T09:39:05.765Z,4.31
2018-03-04T09:40:05.833Z,4.38
2018-03-04T09:41:06.584Z,4.38
2018-03-04T09:42:06.052Z,4.44
2018-03-04T09:43:05.745Z,4.44
2018-03-04T09:44:06.501Z,4.44
2018-03-04T09:45:10.953Z,4.50
2018-03-04T09:46:06.129Z,4.50
2018-03-04T09:47:05.764Z,4.56
2018-03-04T09:48:06.632Z,4.56
2018-03-04T09:49:06.033Z,4.56
2018-03-04T09:50:06.040Z,4.62
2018-03-04T09:51:06.555Z,4.62
2018-03-04T09:52:06.229Z,4.69
2018-03-04T09:53:11.205Z,4.69
2018-03-04T09:54:10.413Z,4.75
2018-03-04T09:55:06.672Z,4.75
2018-03-04T09:56:06.285Z,4.81
2018-03-04T09:57:05.800Z,4.81
2018-03-04T09:58:10.888Z,4.88
2018-03-04T09:59:06.086Z,4.88
2018-03-04T10:00:06.146Z,4.94
2018-03-04T10:01:10.516Z,4.94
2018-03-04T10:02:05.855Z,5.00
2018-03-04T10:03:05.498Z,5.00
2018-03-04T10:04:05.490Z,4.94
2018-03-04T10:05:05.937Z,4.94
2018-03-04T10:06:06.587Z,5.00
2018-03-04T10:07:06.173Z,5.00
2018-03-04T10:08:06.187Z,5.00
2018-03-04T10:09:06.432Z,5.00
2018-03-04T10:10:06.255Z,5.00
2018-03-04T10:11:06.221Z,5.06
2018-03-04T10:12:05.893Z,5.06
2018-03-04T10:13:06.504Z,5.06
2018-03-04T10:14:06.611Z,5.00
2018-03-04T10:15:06.488Z,5.00
2018-03-04T10:16:06.276Z,5.06
2018-03-04T10:17:06.074Z,5.06
2018-03-04T10:18:06.195Z,5.06
2018-03-04T10:19:06.216Z,5.12
2018-03-04T10:20:06.239Z,5.12
2018-03-04T10:21:05.948Z,5.12
2018-03-04T10:22:06.282Z,5.12
2018-03-04T10:23:05.788Z,5.19
2018-03-04T10:24:06.464Z,5.19
2018-03-04T10:25:06.236Z,5.19
2018-03-04T10:26:05.795Z,5.19
2018-03-04T10:27:06.672Z,5.25
2018-03-04T10:28:11.059Z,5.25
2018-03-04T10:29:06.275Z,5.19
2018-03-04T10:30:06.565Z,5.19
2018-03-04T10:31:05.921Z,5.19
2018-03-04T10:32:10.729Z,5.25
2018-03-04T10:33:05.835Z,5.25
2018-03-04T10:34:05.958Z,5.31
2018-03-04T10:35:06.254Z,5.31
2018-03-04T10:36:05.846Z,5.38
2018-03-04T10:37:06.466Z,5.38
2018-03-04T10:38:05.911Z,5.31
2018-03-04T10:39:06.173Z,5.38
2018-03-04T10:40:05.419Z,5.38
2018-03-04T10:41:06.997Z,5.44
2018-03-04T10:42:05.927Z,5.44
2018-03-04T10:43:05.901Z,5.50
2018-03-04T10:44:05.419Z,5.50
2018-03-04T10:45:06.085Z,5.50
2018-03-04T10:46:05.725Z,5.56
2018-03-04T10:47:06.336Z,5.56
2018-03-04T10:48:06.320Z,5.62
2018-03-04T10:49:05.880Z,5.62
2018-03-04T10:50:06.562Z,5.62
2018-03-04T10:51:05.865Z,5.69
2018-03-04T10:52:05.844Z,5.69
2018-03-04T10:53:05.419Z,5.69
2018-03-04T10:54:06.207Z,5.75
2018-03-04T10:55:05.803Z,5.75
2018-03-04T10:56:05.811Z,5.81
2018-03-04T10:57:06.740Z,5.81
2018-03-04T10:58:06.224Z,5.81
2018-03-04T10:59:06.406Z,5.88
2018-03-04T11:00:05.713Z,5.88
2018-03-04T11:01:06.623Z,5.88
2018-03-04T11:02:06.101Z,5.94
2018-03-04T11:03:06.164Z,5.94
2018-03-04T11:04:05.835Z,5.88
2018-03-04T11:05:05.559Z,5.88
2018-03-04T11:06:05.876Z,5.88
2018-03-04T11:07:10.478Z,5.88
2018-03-04T11:08:10.941Z,5.88
2018-03-04T11:09:10.872Z,5.88
2018-03-04T11:10:06.290Z,5.88
2018-03-04T11:11:06.721Z,5.88
2018-03-04T11:12:06.311Z,5.88
2018-03-04T11:13:06.287Z,5.88
2018-03-04T11:14:05.512Z,5.88
2018-03-04T11:15:06.342Z,5.88
2018-03-04T11:16:05.789Z,5.94
2018-03-04T11:17:06.991Z,5.94
2018-03-04T11:18:05.793Z,5.94
2018-03-04T11:19:06.311Z,5.94
2018-03-04T11:20:05.575Z,5.94
2018-03-04T11:21:05.453Z,5.94
2018-03-04T11:22:06.195Z,5.94
2018-03-04T11:23:05.875Z,5.94
2018-03-04T11:24:06.088Z,5.94
2018-03-04T11:25:05.844Z,5.94
2018-03-04T11:26:06.586Z,6.00
2018-03-04T11:27:05.749Z,6.00
2018-03-04T11:28:05.866Z,6.06
2018-03-04T11:29:10.789Z,6.06
2018-03-04T11:30:06.326Z,6.12
2018-03-04T11:31:05.835Z,6.12
2018-03-04T11:32:06.461Z,6.12
2018-03-04T11:33:06.159Z,6.12
2018-03-04T11:34:05.862Z,6.12
2018-03-04T11:35:06.240Z,6.12
2018-03-04T11:36:05.585Z,6.19
2018-03-04T11:37:05.847Z,6.19
2018-03-04T11:38:05.961Z,6.25
2018-03-04T11:39:05.856Z,6.25
2018-03-04T11:40:05.964Z,6.25
2018-03-04T11:41:06.522Z,6.31
2018-03-04T11:42:10.326Z,6.31
2018-03-04T11:43:11.359Z,6.38
2018-03-04T11:44:05.574Z,6.38
2018-03-04T11:45:05.961Z,6.38
2018-03-04T11:46:06.809Z,6.38
2018-03-04T11:47:06.369Z,6.38
2018-03-04T11:48:05.476Z,6.31
2018-03-04T11:49:05.881Z,6.31
2018-03-04T11:50:06.360Z,6.25
2018-03-04T11:51:06.286Z,6.25
2018-03-04T11:52:05.888Z,6.25
2018-03-04T11:53:10.331Z,6.25
2018-03-04T11:54:05.921Z,6.31
2018-03-04T11:55:06.298Z,6.31
2018-03-04T11:56:06.210Z,6.31
2018-03-04T11:57:06.294Z,6.31
2018-03-04T11:58:05.979Z,6.38
2018-03-04T11:59:06.304Z,6.38
2018-03-04T12:00:05.889Z,6.38
2018-03-04T12:01:05.621Z,6.38
2018-03-04T12:02:06.317Z,6.44
2018-03-04T12:03:05.956Z,6.50
2018-03-04T12:04:06.064Z,6.50
2018-03-04T12:05:05.855Z,6.50
2018-03-04T12:06:06.316Z,6.50
2018-03-04T12:07:05.917Z,6.50
2018-03-04T12:08:05.592Z,6.50
2018-03-04T12:09:10.712Z,6.50
2018-03-04T12:10:05.978Z,6.50
2018-03-04T12:11:05.493Z,6.50
2018-03-04T12:12:05.576Z,6.56
2018-03-04T12:13:06.221Z,6.56
2018-03-04T12:14:06.311Z,6.62
2018-03-04T12:15:10.816Z,6.62
2018-03-04T12:16:10.946Z,6.62
2018-03-04T12:17:06.283Z,6.62
2018-03-04T12:18:05.896Z,6.69
2018-03-04T12:19:06.373Z,6.69
2018-03-04T12:20:05.570Z,6.69
2018-03-04T12:21:05.870Z,6.75
2018-03-04T12:22:06.238Z,6.75
2018-03-04T12:23:06.603Z,6.75
2018-03-04T12:25:05.796Z,6.75
2018-03-04T12:26:05.526Z,6.81
2018-03-04T12:27:05.424Z,6.88
2018-03-04T12:28:05.897Z,6.88
2018-03-04T12:29:11.211Z,6.94
2018-03-04T12:30:07.423Z,6.94
2018-03-04T12:31:10.514Z,7.00
2018-03-04T12:32:05.896Z,7.00
2018-03-04T12:33:05.405Z,7.06
2018-03-04T12:34:06.428Z,7.12
2018-03-04T12:35:05.542Z,7.12
2018-03-04T12:36:11.300Z,7.19
2018-03-04T12:37:06.479Z,7.19
2018-03-04T12:38:06.208Z,7.25
2018-03-04T12:39:06.296Z,7.25
2018-03-04T12:40:05.995Z,7.25
2018-03-04T12:41:06.598Z,7.31
2018-03-04T12:42:11.038Z,7.31
2018-03-04T12:43:05.622Z,7.38
2018-03-04T12:44:05.587Z,7.38
2018-03-04T12:45:05.876Z,7.38
2018-03-04T12:46:05.939Z,7.38
2018-03-04T12:47:06.676Z,7.38
2018-03-04T12:48:06.688Z,7.38
2018-03-04T12:49:06.031Z,7.38
2018-03-04T12:50:05.927Z,7.44
2018-03-04T12:51:06.032Z,7.44
2018-03-04T12:52:06.205Z,7.44
2018-03-04T12:53:05.823Z,7.44
2018-03-04T12:54:06.304Z,7.44
2018-03-04T12:55:06.225Z,7.44
2018-03-04T12:56:05.849Z,7.50
2018-03-04T12:57:05.595Z,7.44
2018-03-04T12:58:06.082Z,7.44
2018-03-04T12:59:05.630Z,7.50
2018-03-04T13:00:06.582Z,7.50
2018-03-04T13:01:06.024Z,7.50
2018-03-04T13:02:05.538Z,7.50
2018-03-04T13:03:05.926Z,7.50